JBU479 KSAN-KPDX
Flight info
| Callsign | JBU479 |
|---|---|
| Flight time | N/A |
| Altitude | 32000 |
| Route | PADRZ2 EHF DNOLD GALLO TMBRS3 |
| Aircraft | A20N/M-SDE2E3FGHIRWXY/LB1 |
Departure
| Time | 2026-04-25 20:09 |
|---|---|
| Airport | San Diego International Airport (KSAN) |
Arrival
| Time | N/A |
|---|---|
| Airport | Portland International Airport (KPDX) |
| Time | Latitude | Longitude | Altitude | Speed | Heading |
|---|---|---|---|---|---|
| 2026-04-25 19:25 | 32.73386 | -117.20463 | 25 ft | 0 kts | 89° |
| 2026-04-25 19:55 | 32.73385 | -117.20467 | 25 ft | 0 kts | 124° |
| 2026-04-25 19:56 | 32.73387 | -117.20471 | 25 ft | 0 kts | 121° |
| 2026-04-25 19:56 | 32.73394 | -117.20488 | 34 ft | 2 kts | 99° |
| 2026-04-25 19:57 | 32.73394 | -117.20508 | 29 ft | 2 kts | 76° |
| 2026-04-25 19:57 | 32.73388 | -117.20526 | 28 ft | 2 kts | 53° |
| 2026-04-25 19:57 | 32.73378 | -117.20540 | 27 ft | 2 kts | 31° |
| 2026-04-25 19:57 | 32.73366 | -117.20547 | 27 ft | 2 kts | 11° |
| 2026-04-25 19:58 | 32.73353 | -117.20549 | 27 ft | 0 kts | 355° |
| 2026-04-25 19:58 | 32.73354 | -117.20549 | 27 ft | 0 kts | 355° |
| 2026-04-25 20:03 | 32.73353 | -117.20549 | 25 ft | 0 kts | 355° |
| 2026-04-25 20:03 | 32.73381 | -117.20552 | 25 ft | 9 kts | 352° |
| 2026-04-25 20:03 | 32.73476 | -117.20551 | 22 ft | 18 kts | 20° |
| 2026-04-25 20:04 | 32.73518 | -117.20507 | 20 ft | 4 kts | 50° |
| 2026-04-25 20:04 | 32.73561 | -117.20443 | 20 ft | 15 kts | 48° |
| 2026-04-25 20:04 | 32.73577 | -117.20311 | 24 ft | 20 kts | 106° |
| 2026-04-25 20:04 | 32.73533 | -117.20128 | 30 ft | 27 kts | 106° |
| 2026-04-25 20:05 | 32.73478 | -117.19897 | 27 ft | 29 kts | 108° |
| 2026-04-25 20:05 | 32.73415 | -117.19639 | 30 ft | 36 kts | 106° |
| 2026-04-25 20:05 | 32.73339 | -117.19329 | 25 ft | 42 kts | 107° |
| 2026-04-25 20:05 | 32.73277 | -117.19071 | 28 ft | 25 kts | 105° |
| 2026-04-25 20:06 | 32.73237 | -117.18905 | 27 ft | 21 kts | 107° |
| 2026-04-25 20:06 | 32.73191 | -117.18731 | 27 ft | 23 kts | 105° |
| 2026-04-25 20:06 | 32.73147 | -117.18537 | 28 ft | 26 kts | 107° |
| 2026-04-25 20:06 | 32.73095 | -117.18318 | 26 ft | 29 kts | 106° |
| 2026-04-25 20:07 | 32.73057 | -117.18161 | 21 ft | 0 kts | 107° |
| 2026-04-25 20:07 | 32.73051 | -117.18139 | 22 ft | 5 kts | 106° |
| 2026-04-25 20:07 | 32.73037 | -117.18079 | 20 ft | 10 kts | 105° |
| 2026-04-25 20:07 | 32.73015 | -117.17987 | 20 ft | 13 kts | 106° |
| 2026-04-25 20:08 | 32.72985 | -117.17868 | 21 ft | 17 kts | 104° |
| 2026-04-25 20:08 | 32.72952 | -117.17717 | 19 ft | 19 kts | 90° |
| 2026-04-25 20:08 | 32.72997 | -117.17583 | 24 ft | 15 kts | 15° |
| 2026-04-25 20:08 | 32.73040 | -117.17671 | 21 ft | 15 kts | 286° |
| 2026-04-25 20:09 | 32.73106 | -117.17940 | 21 ft | 71 kts | 286° |
| 2026-04-25 20:09 | 32.73307 | -117.18788 | 26 ft | 139 kts | 286° |
| 2026-04-25 20:09 | 32.73623 | -117.20001 | 472 ft | 160 kts | 287° |
| 2026-04-25 20:09 | 32.74026 | -117.21265 | 1334 ft | 166 kts | 290° |
| 2026-04-25 20:10 | 32.74336 | -117.22090 | 1854 ft | 166 kts | 294° |
| 2026-04-25 20:10 | 32.74929 | -117.23876 | 2630 ft | 186 kts | 284° |
| 2026-04-25 20:10 | 32.75300 | -117.25365 | 3297 ft | 188 kts | 284° |
| 2026-04-25 20:10 | 32.75714 | -117.26817 | 4269 ft | 182 kts | 296° |
| 2026-04-25 20:11 | 32.76512 | -117.27956 | 5069 ft | 184 kts | 313° |
| 2026-04-25 20:11 | 32.77449 | -117.29035 | 5667 ft | 191 kts | 314° |
| 2026-04-25 20:11 | 32.78431 | -117.30124 | 5930 ft | 194 kts | 315° |
| 2026-04-25 20:11 | 32.79422 | -117.31195 | 5972 ft | 192 kts | 315° |
| 2026-04-25 20:12 | 32.80319 | -117.32374 | 5983 ft | 192 kts | 305° |
| 2026-04-25 20:12 | 32.81123 | -117.33642 | 5986 ft | 191 kts | 305° |
| 2026-04-25 20:12 | 32.81929 | -117.34898 | 5968 ft | 192 kts | 305° |
| 2026-04-25 20:12 | 32.82194 | -117.35308 | 5968 ft | 193 kts | 305° |
| 2026-04-25 20:13 | 32.83559 | -117.37423 | 5976 ft | 192 kts | 306° |
| 2026-04-25 20:13 | 32.84370 | -117.38679 | 5967 ft | 192 kts | 306° |
| 2026-04-25 20:13 | 32.85203 | -117.39971 | 6022 ft | 210 kts | 306° |
| 2026-04-25 20:13 | 32.86100 | -117.41365 | 6786 ft | 210 kts | 306° |
| 2026-04-25 20:14 | 32.86973 | -117.42707 | 7643 ft | 201 kts | 304° |
| 2026-04-25 20:14 | 32.87831 | -117.44011 | 8256 ft | 202 kts | 303° |
| 2026-04-25 20:14 | 32.88696 | -117.45322 | 8759 ft | 207 kts | 303° |
| 2026-04-25 20:14 | 32.89595 | -117.46682 | 9300 ft | 210 kts | 302° |
| 2026-04-25 20:15 | 32.90502 | -117.48048 | 9894 ft | 211 kts | 301° |
| 2026-04-25 20:15 | 32.91416 | -117.49418 | 10420 ft | 212 kts | 301° |
| 2026-04-25 20:15 | 32.92337 | -117.50792 | 10949 ft | 212 kts | 300° |
| 2026-04-25 20:15 | 32.93263 | -117.52171 | 11475 ft | 214 kts | 300° |
| 2026-04-25 20:16 | 32.94185 | -117.53538 | 11975 ft | 215 kts | 299° |
| 2026-04-25 20:16 | 32.95121 | -117.54922 | 12482 ft | 216 kts | 299° |
| 2026-04-25 20:16 | 32.96066 | -117.56315 | 12981 ft | 217 kts | 298° |
| 2026-04-25 20:16 | 32.97020 | -117.57718 | 13474 ft | 218 kts | 299° |